createdAt,value
2017-09-13T00:01:06.566Z,1003.36
2017-09-13T00:02:16.160Z,1003.33
2017-09-13T00:03:26.706Z,1003.38
2017-09-13T00:04:36.652Z,1003.3
2017-09-13T00:05:46.890Z,1003.3
2017-09-13T00:06:56.825Z,1003.33
2017-09-13T00:08:06.449Z,1003.32
2017-09-13T00:09:16.683Z,1003.36
2017-09-13T00:10:26.937Z,1003.33
2017-09-13T00:11:37.211Z,1003.35
2017-09-13T00:12:47.143Z,1003.34
2017-09-13T00:13:56.758Z,1003.37
2017-09-13T00:15:07.355Z,1003.35
2017-09-13T00:16:17.306Z,1003.29
2017-09-13T00:17:27.577Z,1003.33
2017-09-13T00:18:37.826Z,1003.35
2017-09-13T00:19:48.083Z,1003.37
2017-09-13T00:20:58.680Z,1003.38
2017-09-13T00:22:08.933Z,1003.38
2017-09-13T00:23:19.184Z,1003.38
2017-09-13T00:24:29.430Z,1003.35
2017-09-13T00:25:39.049Z,1003.28
2017-09-13T00:26:49.341Z,1003.28
2017-09-13T00:27:59.275Z,1003.28
2017-09-13T00:29:09.532Z,1003.24
2017-09-13T00:30:19.778Z,1003.2
2017-09-13T00:31:30.047Z,1003.2
2017-09-13T00:32:40.652Z,1003.24
2017-09-13T00:33:50.902Z,1003.22
2017-09-13T00:35:01.151Z,1003.22
2017-09-13T00:36:11.079Z,1003.2
2017-09-13T00:37:21.326Z,1003.11
2017-09-13T00:38:31.931Z,1003.04
2017-09-13T00:39:41.553Z,1003.05
2017-09-13T00:40:51.797Z,1003.03
2017-09-13T00:42:02.039Z,1003.02
2017-09-13T00:43:12.290Z,1003.01
2017-09-13T00:44:22.883Z,1002.99
2017-09-13T00:45:32.825Z,1003.03
2017-09-13T00:46:43.071Z,1003.01
2017-09-13T00:47:53.315Z,1003.01
2017-09-13T00:49:03.572Z,1002.96
2017-09-13T00:50:13.850Z,1002.94
2017-09-13T00:51:24.099Z,1002.9
2017-09-13T00:52:34.351Z,1002.91
2017-09-13T00:53:44.288Z,1002.96
2017-09-13T00:54:54.539Z,1002.88
2017-09-13T00:56:05.084Z,1002.81
2017-09-13T00:57:14.710Z,1002.8
2017-09-13T00:58:24.968Z,1002.79
2017-09-13T00:59:35.221Z,1002.8
2017-09-13T01:00:45.471Z,1002.8
2017-09-13T01:01:56.027Z,1002.82
2017-09-13T01:03:05.954Z,1002.86
2017-09-13T01:04:16.203Z,1002.86
2017-09-13T01:05:26.448Z,1002.85
2017-09-13T01:06:36.701Z,1002.9
2017-09-13T01:07:46.979Z,1002.9
2017-09-13T01:08:56.908Z,1002.88
2017-09-13T01:10:07.162Z,1002.85
2017-09-13T01:11:17.417Z,1002.81
2017-09-13T01:12:27.665Z,1002.89
2017-09-13T01:13:37.910Z,1002.86
2017-09-13T01:14:48.152Z,1002.86
2017-09-13T01:15:58.399Z,1002.83
2017-09-13T01:17:08.339Z,1002.84
2017-09-13T01:18:18.266Z,1002.91
2017-09-13T01:19:28.498Z,1002.91
2017-09-13T01:20:38.425Z,1002.89
2017-09-13T01:21:48.361Z,1002.9
2017-09-13T01:22:58.291Z,1002.86
2017-09-13T01:24:08.315Z,1002.88
2017-09-13T01:25:18.601Z,1002.87
2017-09-13T01:26:28.840Z,1002.82
2017-09-13T01:27:39.085Z,1002.79
2017-09-13T01:28:48.704Z,1002.8
2017-09-13T01:29:58.634Z,1002.81
2017-09-13T01:31:09.229Z,1002.82
2017-09-13T01:32:19.484Z,1002.83
2017-09-13T01:33:29.427Z,1002.85
2017-09-13T01:34:39.361Z,1002.85
2017-09-13T01:35:49.613Z,1002.8
2017-09-13T01:37:00.162Z,1002.76
2017-09-13T01:38:10.112Z,1002.66
2017-09-13T01:39:20.035Z,1002.68
2017-09-13T01:40:30.300Z,1002.63
2017-09-13T01:41:40.544Z,1002.63
2017-09-13T01:42:51.089Z,1002.65
2017-09-13T01:44:01.018Z,1002.65
2017-09-13T01:45:10.953Z,1002.6
2017-09-13T01:46:20.887Z,1002.61
2017-09-13T01:47:31.147Z,1002.6
2017-09-13T01:48:41.693Z,1002.54
2017-09-13T01:49:51.624Z,1002.51
2017-09-13T01:51:01.239Z,1002.52
2017-09-13T01:52:11.169Z,1002.5
2017-09-13T01:53:21.129Z,1002.53
2017-09-13T01:54:31.758Z,1002.51
2017-09-13T01:55:42.002Z,1002.52
2017-09-13T01:56:52.258Z,1002.55
2017-09-13T01:58:02.506Z,1002.53
2017-09-13T01:59:12.444Z,1002.49
2017-09-13T02:00:23.043Z,1002.46
2017-09-13T02:01:32.976Z,1002.48
2017-09-13T02:02:42.906Z,1002.5
2017-09-13T02:03:52.836Z,1002.44
2017-09-13T02:05:02.772Z,1002.46
2017-09-13T02:06:13.063Z,1002.47
2017-09-13T02:07:23.308Z,1002.46
2017-09-13T02:08:33.551Z,1002.46
2017-09-13T02:09:43.802Z,1002.43
2017-09-13T02:10:54.042Z,1002.42
2017-09-13T02:12:04.271Z,1002.4
2017-09-13T02:13:14.525Z,1002.42
2017-09-13T02:14:24.777Z,1002.36
2017-09-13T02:15:34.705Z,1002.36
2017-09-13T02:16:44.944Z,1002.4
2017-09-13T02:17:55.554Z,1002.39
2017-09-13T02:19:05.479Z,1002.44
2017-09-13T02:20:15.762Z,1002.38
2017-09-13T02:21:25.742Z,1002.35
2017-09-13T02:22:35.990Z,1002.37
2017-09-13T02:23:46.536Z,1002.3
2017-09-13T02:24:56.804Z,1002.25
2017-09-13T02:26:07.058Z,1002.21
2017-09-13T02:27:16.999Z,1002.19
2017-09-13T02:28:27.244Z,1002.14
2017-09-13T02:29:37.847Z,1002.17
2017-09-13T02:30:48.099Z,1002.19
2017-09-13T02:31:58.369Z,1002.18
2017-09-13T02:33:08.614Z,1002.14
2017-09-13T02:34:18.561Z,1002.18
2017-09-13T02:35:29.159Z,1002.08
2017-09-13T02:36:39.420Z,1002.08
2017-09-13T02:37:49.679Z,1002.06
2017-09-13T02:38:59.942Z,1001.99
2017-09-13T02:40:10.196Z,1001.99
2017-09-13T02:41:20.432Z,1001.98
2017-09-13T02:42:30.353Z,1001.92
2017-09-13T02:43:40.287Z,1001.93
2017-09-13T02:44:50.527Z,1001.92
2017-09-13T02:46:00.470Z,1001.91
2017-09-13T02:47:10.449Z,1001.91
2017-09-13T02:48:20.700Z,1001.99
2017-09-13T02:49:30.999Z,1002.01
2017-09-13T02:50:41.248Z,1001.98
2017-09-13T02:51:51.499Z,1001.99
2017-09-13T02:53:02.101Z,1001.98
2017-09-13T02:54:12.380Z,1001.95
2017-09-13T02:55:22.674Z,1001.86
2017-09-13T02:56:32.621Z,1001.85
2017-09-13T02:57:42.866Z,1001.79
2017-09-13T02:58:53.153Z,1001.73
2017-09-13T03:00:03.092Z,1001.78
2017-09-13T03:01:13.028Z,1001.68
2017-09-13T03:02:23.275Z,1001.64
2017-09-13T03:03:33.526Z,1001.6
2017-09-13T03:04:44.129Z,1001.6
2017-09-13T03:05:54.370Z,1001.56
2017-09-13T03:07:04.309Z,1001.54
2017-09-13T03:08:14.556Z,1001.54
2017-09-13T03:09:24.493Z,1001.54
2017-09-13T03:10:35.030Z,1001.56
2017-09-13T03:11:44.963Z,1001.62
2017-09-13T03:12:55.216Z,1001.67
2017-09-13T03:14:05.468Z,1001.71
2017-09-13T03:15:15.400Z,1001.71
2017-09-13T03:16:26.007Z,1001.69
2017-09-13T03:17:36.249Z,1001.68
2017-09-13T03:18:45.862Z,1001.67
2017-09-13T03:19:55.173Z,1001.63
2017-09-13T03:21:05.112Z,1001.58
2017-09-13T03:22:15.715Z,1001.51
2017-09-13T03:23:25.979Z,1001.51
2017-09-13T03:24:36.227Z,1001.44
2017-09-13T03:25:46.154Z,1001.34
2017-09-13T03:26:56.401Z,1001.32
2017-09-13T03:28:07.007Z,1001.29
2017-09-13T03:29:16.931Z,1001.26
2017-09-13T03:30:26.578Z,1001.24
2017-09-13T03:31:36.167Z,1001.24
2017-09-13T03:32:46.429Z,1001.2
2017-09-13T03:33:57.036Z,1001.2
2017-09-13T03:35:07.305Z,1001.15
2017-09-13T03:36:17.565Z,1001.1
2017-09-13T03:37:27.500Z,1001.08
2017-09-13T03:38:37.751Z,1001.05
2017-09-13T03:39:47.669Z,1000.99
2017-09-13T03:40:57.950Z,1001.05
2017-09-13T03:42:07.604Z,1001.03
2017-09-13T03:43:17.538Z,1001.07
2017-09-13T03:44:27.807Z,1001.06
2017-09-13T03:45:38.423Z,1001.09
2017-09-13T03:46:48.045Z,1001.09
2017-09-13T03:47:57.973Z,1001.04
2017-09-13T03:49:08.224Z,1001.04
2017-09-13T03:50:18.158Z,1001.05
2017-09-13T03:51:28.393Z,1001.08
2017-09-13T03:52:38.648Z,1001.07
2017-09-13T03:53:48.905Z,1001.03
2017-09-13T03:54:59.153Z,1001.06
2017-09-13T03:56:09.087Z,1001
2017-09-13T03:57:19.636Z,1000.97
2017-09-13T03:58:29.879Z,1000.87
2017-09-13T03:59:40.130Z,1000.87
2017-09-13T04:00:50.373Z,1000.83
2017-09-13T04:02:00.626Z,1000.84
2017-09-13T04:03:10.857Z,1000.88
2017-09-13T04:04:21.106Z,1000.83
2017-09-13T04:05:31.351Z,1000.77
2017-09-13T04:06:41.607Z,1000.8
2017-09-13T04:07:51.551Z,1000.79
2017-09-13T04:09:02.145Z,1000.75
2017-09-13T04:10:12.398Z,1000.75
2017-09-13T04:11:22.335Z,1000.78
2017-09-13T04:12:32.279Z,1000.81
2017-09-13T04:13:42.208Z,1000.8
2017-09-13T04:14:52.798Z,1000.77
2017-09-13T04:16:03.056Z,1000.77
2017-09-13T04:17:13.304Z,1000.77
2017-09-13T04:18:23.556Z,1000.78
2017-09-13T04:19:33.491Z,1000.76
2017-09-13T04:20:44.058Z,1000.67
2017-09-13T04:21:54.329Z,1000.62
2017-09-13T04:23:04.258Z,1000.56
2017-09-13T04:24:14.533Z,1000.51
2017-09-13T04:25:24.472Z,1000.51
2017-09-13T04:26:35.067Z,1000.51
2017-09-13T04:27:45.315Z,1000.59
2017-09-13T04:28:55.576Z,1000.62
2017-09-13T04:30:05.828Z,1000.61
2017-09-13T04:31:15.763Z,1000.52
2017-09-13T04:32:26.003Z,1000.55
2017-09-13T04:33:35.945Z,1000.54
2017-09-13T04:34:46.198Z,1000.43
2017-09-13T04:35:56.156Z,1000.38
2017-09-13T04:37:06.097Z,1000.35
2017-09-13T04:38:16.322Z,1000.39
2017-09-13T04:39:26.570Z,1000.45
2017-09-13T04:40:36.832Z,1000.34
2017-09-13T04:41:46.763Z,1000.29
2017-09-13T04:42:57.017Z,1000.29
2017-09-13T04:44:07.573Z,1000.32
2017-09-13T04:45:17.855Z,1000.22
2017-09-13T04:46:28.113Z,1000.26
2017-09-13T04:47:38.367Z,1000.22
2017-09-13T04:48:48.292Z,1000.25
2017-09-13T04:49:58.577Z,1000.22
2017-09-13T04:51:08.818Z,1000.28
2017-09-13T04:52:18.442Z,1000.27
2017-09-13T04:53:28.694Z,1000.27
2017-09-13T04:54:38.962Z,1000.13
2017-09-13T04:55:49.580Z,1000.11
2017-09-13T04:56:59.508Z,1000.05
2017-09-13T04:58:09.759Z,999.98
2017-09-13T04:59:20.027Z,999.99
2017-09-13T05:00:29.957Z,999.97
2017-09-13T05:01:40.521Z,999.89
2017-09-13T05:02:51.068Z,999.84
2017-09-13T05:04:01.325Z,999.79
2017-09-13T05:05:11.261Z,999.79
2017-09-13T05:06:21.531Z,999.74
2017-09-13T05:07:32.086Z,999.72
2017-09-13T05:08:42.030Z,999.72
2017-09-13T05:09:52.290Z,999.61
2017-09-13T05:11:01.592Z,999.7
2017-09-13T05:12:11.565Z,999.56
2017-09-13T05:13:21.826Z,999.63
2017-09-13T05:14:32.083Z,999.72
2017-09-13T05:15:42.048Z,999.68
2017-09-13T05:16:52.299Z,999.62
2017-09-13T05:18:02.542Z,999.56
2017-09-13T05:19:12.792Z,999.52
2017-09-13T05:20:22.733Z,999.52
2017-09-13T05:21:32.981Z,999.46
2017-09-13T05:22:42.606Z,999.45
2017-09-13T05:23:52.889Z,999.43
2017-09-13T05:25:03.558Z,999.37
2017-09-13T05:26:13.816Z,999.36
2017-09-13T05:27:24.066Z,999.34
2017-09-13T05:28:34.345Z,999.33
2017-09-13T05:29:44.646Z,999.33
2017-09-13T05:30:55.243Z,999.26
2017-09-13T05:32:05.529Z,999.23
2017-09-13T05:33:15.459Z,999.28
2017-09-13T05:34:25.708Z,999.22
2017-09-13T05:35:35.653Z,999.19
2017-09-13T05:36:46.266Z,999.28
2017-09-13T05:37:55.905Z,999.26
2017-09-13T05:39:06.152Z,999.3
2017-09-13T05:40:16.091Z,999.22
2017-09-13T05:41:26.026Z,999.23
2017-09-13T05:42:36.579Z,999.19
2017-09-13T05:43:46.540Z,999.15
2017-09-13T05:44:56.800Z,999.12
2017-09-13T05:46:06.794Z,998.97
2017-09-13T05:47:16.759Z,999
2017-09-13T05:48:27.359Z,999
2017-09-13T05:49:37.622Z,998.98
2017-09-13T05:50:47.254Z,999.01
2017-09-13T05:51:57.507Z,999.04
2017-09-13T05:53:07.764Z,999.04
2017-09-13T05:54:18.065Z,999.05
2017-09-13T05:55:27.998Z,999.01
2017-09-13T05:56:38.249Z,998.97
2017-09-13T05:57:47.911Z,998.97
2017-09-13T05:58:58.189Z,998.88
2017-09-13T06:00:08.475Z,998.88
2017-09-13T06:01:18.411Z,998.89
2017-09-13T06:02:28.681Z,998.8
2017-09-13T06:03:38.937Z,998.73
2017-09-13T06:04:49.240Z,998.66
2017-09-13T06:05:59.811Z,998.6
2017-09-13T06:07:10.081Z,998.52
2017-09-13T06:08:20.354Z,998.49
2017-09-13T06:09:30.626Z,998.46
2017-09-13T06:10:40.564Z,998.46
2017-09-13T06:11:50.845Z,998.43
2017-09-13T06:13:00.473Z,998.38
2017-09-13T06:14:10.728Z,998.43
2017-09-13T06:15:20.986Z,998.33
2017-09-13T06:16:31.286Z,998.24
2017-09-13T06:17:41.867Z,998.27
2017-09-13T06:18:52.129Z,998.19
2017-09-13T06:20:02.374Z,998.25
2017-09-13T06:21:12.332Z,998.15
2017-09-13T06:22:21.673Z,998.18
2017-09-13T06:23:32.225Z,998.13
2017-09-13T06:24:42.481Z,998.16
2017-09-13T06:25:52.435Z,998.1
2017-09-13T06:27:02.719Z,998.11
2017-09-13T06:28:12.985Z,998.11
2017-09-13T06:29:23.612Z,998.09
2017-09-13T06:30:33.866Z,998.09
2017-09-13T06:31:44.130Z,998.12
2017-09-13T06:32:54.100Z,998.16
2017-09-13T06:34:04.058Z,998.1
2017-09-13T06:35:14.727Z,998
2017-09-13T06:36:24.683Z,998.04
2017-09-13T06:37:34.616Z,998.04
2017-09-13T06:38:44.951Z,998
2017-09-13T06:39:54.905Z,997.96
2017-09-13T06:41:05.509Z,997.96
2017-09-13T06:42:15.784Z,997.89
2017-09-13T06:43:25.719Z,997.95
2017-09-13T06:44:35.664Z,997.93
2017-09-13T06:45:45.932Z,997.92
2017-09-13T06:46:56.538Z,998.01
2017-09-13T06:48:06.478Z,997.91
2017-09-13T06:49:16.744Z,998.08
2017-09-13T06:50:27.003Z,998.06
2017-09-13T06:51:37.281Z,998.03
2017-09-13T06:52:47.888Z,998.05
2017-09-13T06:53:58.144Z,997.99
2017-09-13T06:55:08.403Z,998.04
2017-09-13T06:56:18.655Z,998.01
2017-09-13T06:57:28.601Z,997.91
2017-09-13T06:58:39.161Z,997.91
2017-09-13T06:59:49.103Z,997.87
2017-09-13T07:00:59.381Z,997.85
2017-09-13T07:02:09.660Z,997.82
2017-09-13T07:03:19.920Z,997.81
2017-09-13T07:04:30.499Z,997.79
2017-09-13T07:05:40.754Z,997.72
2017-09-13T07:06:51.011Z,997.69
2017-09-13T07:08:01.324Z,997.69
2017-09-13T07:09:11.573Z,997.54
2017-09-13T07:10:22.167Z,997.53
2017-09-13T07:11:32.423Z,997.51
2017-09-13T07:12:42.737Z,997.49
2017-09-13T07:13:53.011Z,997.47
2017-09-13T07:15:03.270Z,997.37
2017-09-13T07:16:13.605Z,997.31
2017-09-13T07:17:24.151Z,997.3
2017-09-13T07:18:34.431Z,997.26
2017-09-13T07:19:44.689Z,997.29
2017-09-13T07:20:54.657Z,997.31
2017-09-13T07:22:05.263Z,997.38
2017-09-13T07:23:15.520Z,997.37
2017-09-13T07:24:25.777Z,997.34
2017-09-13T07:25:36.056Z,997.36
2017-09-13T07:26:46.321Z,997.27
2017-09-13T07:27:56.618Z,997.23
2017-09-13T07:29:06.872Z,997.21
2017-09-13T07:30:16.839Z,997.15
2017-09-13T07:31:27.116Z,997.15
2017-09-13T07:32:37.053Z,997.06
2017-09-13T07:33:47.674Z,996.91
2017-09-13T07:34:57.944Z,996.93
2017-09-13T07:36:07.883Z,996.9
2017-09-13T07:37:18.130Z,996.84
2017-09-13T07:38:28.393Z,996.87
2017-09-13T07:39:39.031Z,996.86
2017-09-13T07:40:48.963Z,996.83
2017-09-13T07:41:58.924Z,996.85
2017-09-13T07:43:09.178Z,996.92
2017-09-13T07:44:19.660Z,996.77
2017-09-13T07:45:30.249Z,996.73
2017-09-13T07:46:40.188Z,996.77
2017-09-13T07:47:50.455Z,996.73
2017-09-13T07:49:00.728Z,996.71
2017-09-13T07:50:10.984Z,996.61
2017-09-13T07:51:21.282Z,996.58
2017-09-13T07:52:31.561Z,996.63
2017-09-13T07:53:41.512Z,996.68
2017-09-13T07:54:51.454Z,996.62
2017-09-13T07:56:01.378Z,996.49
2017-09-13T07:57:11.631Z,996.57
2017-09-13T07:58:21.581Z,996.56
2017-09-13T07:59:31.824Z,996.43
2017-09-13T08:00:42.086Z,996.37
2017-09-13T08:01:52.341Z,996.34
2017-09-13T08:03:02.657Z,996.31
2017-09-13T08:04:12.930Z,996.27
2017-09-13T08:05:22.864Z,996.13
2017-09-13T08:06:32.804Z,996.11
2017-09-13T08:07:42.754Z,996.1
2017-09-13T08:08:53.299Z,995.92
2017-09-13T08:10:03.566Z,995.99
2017-09-13T08:11:13.839Z,995.9
2017-09-13T08:12:23.798Z,996.01
2017-09-13T08:13:33.753Z,995.94
2017-09-13T08:14:43.727Z,995.95
2017-09-13T08:15:54.006Z,995.93
2017-09-13T08:17:03.940Z,995.94
2017-09-13T08:18:13.876Z,995.69
2017-09-13T08:19:23.824Z,995.8
2017-09-13T08:20:34.456Z,995.84
2017-09-13T08:21:44.744Z,995.76
2017-09-13T08:22:55.019Z,995.67
2017-09-13T08:24:05.319Z,995.63
2017-09-13T08:25:15.591Z,995.6
2017-09-13T08:26:26.210Z,995.65
2017-09-13T08:27:36.551Z,995.67
2017-09-13T08:28:46.909Z,995.67
2017-09-13T08:29:57.161Z,995.63
2017-09-13T08:31:07.105Z,995.56
2017-09-13T08:32:17.446Z,995.56
2017-09-13T08:33:27.386Z,995.56
2017-09-13T08:34:37.646Z,995.65
2017-09-13T08:35:47.920Z,995.62
2017-09-13T08:36:58.186Z,995.6
2017-09-13T08:38:08.832Z,995.62
2017-09-13T08:39:19.101Z,995.59
2017-09-13T08:40:29.424Z,995.5
2017-09-13T08:41:39.693Z,995.61
2017-09-13T08:42:49.631Z,995.43
2017-09-13T08:44:00.240Z,995.58
2017-09-13T08:45:10.522Z,995.41
2017-09-13T08:46:20.508Z,995.52
2017-09-13T08:47:30.783Z,995.52
2017-09-13T08:48:40.443Z,995.42
2017-09-13T08:49:50.796Z,995.44
2017-09-13T08:51:00.751Z,995.42
2017-09-13T08:52:11.021Z,995.37
2017-09-13T08:53:20.992Z,995.44
2017-09-13T08:54:31.260Z,995.37
2017-09-13T08:55:41.933Z,995.34
2017-09-13T08:56:52.200Z,995.32
2017-09-13T08:58:02.518Z,995.23
2017-09-13T08:59:12.782Z,995.27
2017-09-13T09:00:23.046Z,995.19
2017-09-13T09:01:33.327Z,995.17
2017-09-13T09:02:43.272Z,995.23
2017-09-13T09:03:53.298Z,995.13
2017-09-13T09:05:03.577Z,995.09
2017-09-13T09:06:13.515Z,995.2
2017-09-13T09:07:23.847Z,995.15
2017-09-13T09:08:33.820Z,995.17
2017-09-13T09:09:44.120Z,995.1
2017-09-13T09:10:54.465Z,995.2
2017-09-13T09:12:04.762Z,994.95
2017-09-13T09:13:15.423Z,995.01
2017-09-13T09:14:25.683Z,995.04
2017-09-13T09:15:35.950Z,994.93
2017-09-13T09:16:46.226Z,995.05
2017-09-13T09:17:56.496Z,995
2017-09-13T09:19:07.110Z,995.04
2017-09-13T09:20:17.432Z,994.95
2017-09-13T09:21:27.401Z,994.91
2017-09-13T09:22:37.380Z,994.66
2017-09-13T09:23:47.334Z,994.69
2017-09-13T09:24:57.572Z,994.75
2017-09-13T09:26:07.830Z,994.87
2017-09-13T09:27:18.104Z,994.74
2017-09-13T09:28:28.079Z,994.76
2017-09-13T09:29:38.347Z,994.78
2017-09-13T09:30:48.336Z,994.69
2017-09-13T09:31:58.621Z,994.76
2017-09-13T09:33:08.893Z,994.7
2017-09-13T09:34:19.151Z,994.62
2017-09-13T09:35:29.443Z,994.61
2017-09-13T09:36:40.019Z,994.59
2017-09-13T09:37:50.263Z,994.36
2017-09-13T09:39:00.515Z,994.59
2017-09-13T09:40:11.045Z,994.57
2017-09-13T09:41:21.297Z,994.49
2017-09-13T09:42:31.854Z,994.47
2017-09-13T09:43:42.145Z,994.43
2017-09-13T09:44:52.436Z,994.49
2017-09-13T09:46:02.727Z,994.43
2017-09-13T09:47:12.683Z,994.44
2017-09-13T09:48:22.928Z,994.51
2017-09-13T09:49:33.190Z,994.38
2017-09-13T09:50:43.129Z,994.44
2017-09-13T09:51:53.387Z,994.49
2017-09-13T09:53:03.650Z,994.41
2017-09-13T09:54:13.885Z,994.3
2017-09-13T09:55:24.141Z,994.38
2017-09-13T09:56:34.095Z,994.35
2017-09-13T09:57:44.375Z,994.3
2017-09-13T09:58:54.660Z,994.23
2017-09-13T10:00:05.287Z,994.26
2017-09-13T10:01:15.628Z,994.27
2017-09-13T10:02:25.571Z,994.28
2017-09-13T10:03:35.860Z,994.23
2017-09-13T10:04:46.126Z,994.33
2017-09-13T10:05:56.750Z,994.1
2017-09-13T10:07:07.006Z,994.05
2017-09-13T10:08:17.261Z,994.1
2017-09-13T10:09:27.530Z,994.13
2017-09-13T10:10:37.466Z,994.14
2017-09-13T10:11:47.773Z,994.08
2017-09-13T10:12:58.068Z,994.02
2017-09-13T10:14:08.364Z,994.03
2017-09-13T10:15:18.616Z,993.83
2017-09-13T10:16:28.899Z,994.04
2017-09-13T10:17:39.556Z,993.78
2017-09-13T10:18:49.836Z,993.73
2017-09-13T10:20:00.098Z,993.77
2017-09-13T10:21:09.754Z,993.74
2017-09-13T10:22:19.704Z,993.87
2017-09-13T10:23:30.282Z,993.73
2017-09-13T10:24:40.541Z,993.55
2017-09-13T10:25:50.501Z,993.59
2017-09-13T10:27:00.783Z,993.61
2017-09-13T10:28:11.056Z,993.63
2017-09-13T10:29:21.307Z,993.55
2017-09-13T10:30:30.933Z,993.44
2017-09-13T10:31:40.883Z,993.53
2017-09-13T10:32:50.513Z,993.48
2017-09-13T10:34:00.471Z,993.36
2017-09-13T10:35:11.027Z,993.32
2017-09-13T10:36:20.984Z,993.38
2017-09-13T10:37:30.932Z,993.4
2017-09-13T10:38:41.202Z,993.39
2017-09-13T10:39:51.481Z,993.4
2017-09-13T10:41:02.058Z,993.55
2017-09-13T10:42:12.350Z,993.37
2017-09-13T10:43:21.984Z,993.35
2017-09-13T10:44:31.629Z,993.37
2017-09-13T10:45:41.601Z,993.45
2017-09-13T10:46:52.248Z,993.44
2017-09-13T10:48:02.221Z,993.36
2017-09-13T10:49:12.479Z,993.34
2017-09-13T10:50:22.511Z,993.45
2017-09-13T10:51:32.798Z,993.2
2017-09-13T10:52:42.779Z,993.43
2017-09-13T10:53:52.726Z,993.19
2017-09-13T10:55:02.355Z,993.16
2017-09-13T10:56:12.291Z,993.17
2017-09-13T10:57:22.572Z,993.33
2017-09-13T10:58:33.128Z,993.55
2017-09-13T10:59:43.402Z,993.22
2017-09-13T11:00:53.674Z,993.18
2017-09-13T11:02:03.954Z,993.19
2017-09-13T11:03:14.230Z,993.59
2017-09-13T11:04:24.790Z,993.04
2017-09-13T11:05:35.049Z,993.19
2017-09-13T11:06:45.301Z,992.96
2017-09-13T11:07:55.265Z,993.07
2017-09-13T11:09:05.212Z,992.84
2017-09-13T11:10:15.787Z,993.11
2017-09-13T11:11:26.083Z,992.9
2017-09-13T11:12:36.075Z,992.74
2017-09-13T11:13:46.350Z,993.08
2017-09-13T11:14:56.660Z,992.73
2017-09-13T11:16:07.305Z,992.93
2017-09-13T11:17:17.597Z,992.87
2017-09-13T11:18:27.547Z,992.99
2017-09-13T11:19:37.496Z,992.63
2017-09-13T11:20:47.762Z,992.89
2017-09-13T11:21:58.332Z,992.66
2017-09-13T11:23:08.325Z,992.9
2017-09-13T11:24:18.604Z,992.72
2017-09-13T11:25:28.867Z,992.74
2017-09-13T11:26:39.140Z,992.74
2017-09-13T11:27:49.452Z,992.58
2017-09-13T11:28:59.715Z,992.53
2017-09-13T11:30:09.966Z,992.66
2017-09-13T11:31:20.225Z,992.77
2017-09-13T11:32:30.497Z,992.63
2017-09-13T11:33:40.755Z,992.57
2017-09-13T11:34:51.013Z,992.71
2017-09-13T11:36:00.647Z,992.77
2017-09-13T11:37:10.946Z,992.74
2017-09-13T11:38:20.888Z,992.6
2017-09-13T11:39:31.190Z,992.54
2017-09-13T11:40:41.457Z,992.6
2017-09-13T11:41:51.398Z,992.73
2017-09-13T11:43:01.027Z,992.54
2017-09-13T11:44:10.982Z,992.7
2017-09-13T11:45:21.242Z,992.51
2017-09-13T11:46:31.524Z,992.7
2017-09-13T11:47:41.800Z,992.84
2017-09-13T11:48:51.743Z,992.66
2017-09-13T11:50:02.019Z,992.59
2017-09-13T11:51:12.629Z,992.68
2017-09-13T11:52:22.581Z,992.56
2017-09-13T11:53:32.835Z,992.42
2017-09-13T11:54:42.796Z,992.32
2017-09-13T11:55:53.089Z,992.3
2017-09-13T11:57:03.711Z,992.44
2017-09-13T11:58:13.993Z,992.69
2017-09-13T11:59:23.939Z,992.29
2017-09-13T12:00:34.210Z,992.33
2017-09-13T12:01:44.179Z,992.07
2017-09-13T12:02:54.168Z,992.28
2017-09-13T12:04:04.466Z,992.31
2017-09-13T12:05:14.738Z,992.01
2017-09-13T12:06:24.391Z,992.17
2017-09-13T12:07:34.662Z,992.29
2017-09-13T12:08:45.273Z,992.33
2017-09-13T12:09:55.565Z,992.31
2017-09-13T12:11:05.862Z,992.28
2017-09-13T12:12:16.131Z,992.31
2017-09-13T12:13:26.447Z,992.28
2017-09-13T12:14:37.322Z,992.12
2017-09-13T12:15:47.285Z,992.26
2017-09-13T12:16:57.269Z,992.37
2017-09-13T12:18:07.230Z,992.12
2017-09-13T12:19:17.184Z,992.19
2017-09-13T12:20:27.702Z,992.33
2017-09-13T12:21:37.691Z,992.53
2017-09-13T12:22:48.086Z,992.15
2017-09-13T12:23:58.421Z,992.19
2017-09-13T12:25:08.385Z,992.36
2017-09-13T12:26:18.950Z,992.09
2017-09-13T12:27:29.206Z,992.15
2017-09-13T12:28:39.512Z,992.13
2017-09-13T12:29:49.839Z,992.32
2017-09-13T12:30:59.781Z,992.13
2017-09-13T12:32:09.980Z,992.15
2017-09-13T12:33:19.926Z,992.12
2017-09-13T12:34:30.229Z,992.13
2017-09-13T12:35:40.519Z,991.99
2017-09-13T12:36:50.812Z,992.42
2017-09-13T12:38:01.366Z,991.94
2017-09-13T12:39:11.323Z,991.88
2017-09-13T12:40:21.593Z,991.91
2017-09-13T12:41:31.912Z,991.97
2017-09-13T12:42:41.872Z,991.96
2017-09-13T12:43:52.672Z,991.78
2017-09-13T12:45:02.971Z,991.81
2017-09-13T12:46:12.965Z,991.76
2017-09-13T12:47:23.303Z,991.86
2017-09-13T12:48:33.622Z,991.71
2017-09-13T12:49:44.201Z,991.71
2017-09-13T12:50:54.173Z,991.61
2017-09-13T12:52:04.150Z,991.96
2017-09-13T12:53:14.429Z,991.99
2017-09-13T12:54:24.717Z,991.84
2017-09-13T12:55:35.348Z,991.64
2017-09-13T12:56:45.338Z,991.86
2017-09-13T12:57:55.609Z,991.97
2017-09-13T12:59:05.880Z,992
2017-09-13T13:00:16.193Z,991.71
2017-09-13T13:01:26.472Z,991.94
2017-09-13T13:02:36.837Z,991.92
2017-09-13T13:03:47.141Z,991.68
2017-09-13T13:04:57.416Z,991.86
2017-09-13T13:06:07.759Z,991.84
2017-09-13T13:07:17.958Z,991.84
2017-09-13T13:08:28.235Z,991.76
2017-09-13T13:09:38.580Z,991.7
2017-09-13T13:10:48.562Z,992.02
2017-09-13T13:11:58.247Z,991.73
2017-09-13T13:13:08.824Z,991.59
2017-09-13T13:14:19.130Z,991.71
2017-09-13T13:15:29.418Z,991.9
2017-09-13T13:16:39.379Z,991.68
2017-09-13T13:17:49.711Z,991.51
2017-09-13T13:19:00.231Z,991.53
2017-09-13T13:20:10.206Z,991.43
2017-09-13T13:21:20.477Z,991.48
2017-09-13T13:22:30.453Z,991.41
2017-09-13T13:23:40.412Z,991.46
2017-09-13T13:24:50.643Z,991.43
2017-09-13T13:26:00.605Z,991.23
2017-09-13T13:27:10.881Z,991.36
2017-09-13T13:28:21.218Z,991.24
2017-09-13T13:29:31.174Z,991.43
2017-09-13T13:30:41.408Z,991.48
2017-09-13T13:31:51.693Z,991.09
2017-09-13T13:33:01.961Z,991.3
2017-09-13T13:34:12.231Z,991.04
2017-09-13T13:35:22.522Z,991.22
2017-09-13T13:36:32.733Z,991.03
2017-09-13T13:37:42.677Z,991.02
2017-09-13T13:38:52.948Z,991.22
2017-09-13T13:40:03.221Z,991.15
2017-09-13T13:41:13.491Z,991.31
2017-09-13T13:42:24.001Z,991.49
2017-09-13T13:43:34.295Z,991.09
2017-09-13T13:44:44.250Z,991.43
2017-09-13T13:45:54.521Z,990.92
2017-09-13T13:47:04.789Z,990.92
2017-09-13T13:48:14.995Z,991.36
2017-09-13T13:49:25.264Z,991.56
2017-09-13T13:50:35.234Z,991.45
2017-09-13T13:51:45.507Z,991.24
2017-09-13T13:52:55.770Z,991.35
2017-09-13T13:54:06.537Z,991.54
2017-09-13T13:55:16.799Z,991.79
2017-09-13T13:56:26.428Z,991.22
2017-09-13T13:57:36.707Z,991.4
2017-09-13T13:58:46.659Z,991.26
2017-09-13T13:59:57.174Z,991.38
2017-09-13T14:01:07.436Z,991.29
2017-09-13T14:02:17.390Z,991.33
2017-09-13T14:03:27.343Z,991.53
2017-09-13T14:04:36.994Z,991.43
2017-09-13T14:05:47.213Z,991.69
2017-09-13T14:06:57.158Z,991.48
2017-09-13T14:08:07.444Z,991.78
2017-09-13T14:09:17.747Z,992.01
2017-09-13T14:10:27.082Z,991.48
2017-09-13T14:11:37.283Z,991.45
2017-09-13T14:12:47.081Z,991.25
2017-09-13T14:13:57.349Z,991.38
2017-09-13T14:15:07.315Z,991.66
2017-09-13T14:16:17.284Z,991.51
2017-09-13T14:17:27.805Z,991.53
2017-09-13T14:18:37.784Z,992.05
2017-09-13T14:19:48.064Z,990.9
2017-09-13T14:20:58.030Z,991.89
2017-09-13T14:22:08.297Z,991.58
2017-09-13T14:23:18.818Z,991.55
2017-09-13T14:24:28.769Z,991.51
2017-09-13T14:25:39.042Z,992
2017-09-13T14:26:49.044Z,991.83
2017-09-13T14:27:58.992Z,991.41
2017-09-13T14:29:09.200Z,991.45
2017-09-13T14:30:19.566Z,991.44